KDNS/DNS METAR and TAF weather

Enter ICAO airport designator
Station Type Date Time Source
KDNS METAR 2020/02/21 15:55 UTC NOAA

KDNS 211555Z AUTO 22013G22KT 10SM CLR M01/M03 A3040 RMK AO2


Station Type Date Time Source
KDNS Decoded METAR 2020/02/21 15:55 UTC NOAA

Denison, IA, United States (KDNS) 41-59N 095-23W
Feb 21, 2020 - 10:55 AM EST / 2020.02.21 1555 UTC
Wind: from the SW (220 degrees) at 15 MPH (13 KT) gusting to 25 MPH (22 KT):0
Visibility: 10 mile(s):0
Sky conditions: clear
Temperature: 30 F (-1 C)
Windchill: 19 F (-7 C):1
Dew Point: 26 F (-3 C)
Relative Humidity: 86%
Pressure (altimeter): 30.4 in. Hg (1029 hPa)
ob: KDNS 211555Z AUTO 22013G22KT 10SM CLR M01/M03 A3040 RMK AO2
cycle: 16

Station Type Date Time Source
KDNS TAF UTC NOAA

Error!

Example: see airport list